Serangoon, Singapore
Current Conditions -  °F | °C
As of 8:00 AM on Saturday 20 Dec 2014 (Local Time) from WSAP Reporting Station
Broken Clouds Broken Clouds  
Wind Chill: 77°   Ceiling: 30000
Heat Index: 78°   Visibility: 6mi
Dew Point: 75°   Wind: 0mph
Humidity: 94%   Direction: NA
Pressure: 29.83"   Gusts: NA
Location:  1.37°N, 103.88°E
Report Text: WSAP 200000Z 00000KT 9999 FEW016 SCT180 BKN300 25/24 Q1010
Loading
Personal Weather Stations






























Interactive Weather Map New forecast layout! Learn more

10-Day Weather Forecast

Advertisements
Track Severe Weather on mobile